The Florida Keys Marathon Airport
KMTH : now visible

Airfield :











YOU CAN JOIN US ON...

 
LOGIN :

Register | Disclaimer

   EN    FR    IT 

 









Legend :    VFR   Marginal VFR   IFR   Intensive IFR   Very Intensive IFR
Visi :
Ceiling :
>= 8 km
>= 3000ft
5 to 8 km
1000 to 3000 ft
1500m to 5 km
500 to 1000 ft
800 to 1500m
200 to 500 ft
< 800m
< 200 ft
Symbols :   Thunderstorms  Fog  Heavy snow  Heavy precipitations  Wind > 20 kt







- Airport Elevation : 5 ft


KMTH - The Florida Keys Marathon

CURRENT METAR :
  • 211653Z AUTO 05021G27KT 10SM FEW026 30/24 A3002 RMK AO2 PK WND 05027/1653 SLP164 T03000244

EXPIRED METARs :
  • 211553Z AUTO 06018G25KT 10SM FEW034 30/24 A3001 RMK AO2 RAE1457 SLP163 P0000 T03000244
  • 211522Z AUTO 06019G25KT 10SM FEW021 SCT030 BKN037 28/24 A3002 RMK AO2 RAE1457 P0000 T02830239
  • 211453Z AUTO 06015G22KT 9SM -RA SCT021 BKN029 OVC060 28/25 A3003 RMK AO2 RAB41 SLP167 P0000 60001 T02780250 50009
  • 211426Z AUTO 05016KT 10SM FEW020 SCT028 BKN040 28/25 A3003 RMK AO2 T02830250

TAF KMTH
Valid from the 21 at 14:00 until the 22 at 12:00 UTC


211418Z 2114/2212 06015G25KT P6SM VCSH FEW022 BKN050
TEMPO 2114/2116 08015G28KT 5SM -SHRA SCT022 BKN035 BKN050
No reported NOTAMs for that airfield.



MET'MAP, your aeronautical weather chart ! - Copyright ORBIFLY December 2007 - Disclaimer

ORBIFLY MET'MAP TEAM :

Programming & Development : Alexandra Zaïnal
Concept & Development : Baudouin d'Aumeries
Co-Development & Prog : Marc-Olivier Méhu
Technical & hardware support : Manuel Goepfert

Contact : metmap@orbifly.com




SOURCES & CREDITS :

   NOAA       Earth
Advisory